sensor_id;sensor_type;location;lat;lon;timestamp;P1;durP1;ratioP1;P2;durP2;ratioP2
75758;SDS011;64371;47.566;19.086;2024-01-06T00:02:23;41.63;;;20.73;;
75758;SDS011;64371;47.566;19.086;2024-01-06T00:05:26;39.30;;;20.73;;
75758;SDS011;64371;47.566;19.086;2024-01-06T00:08:28;40.25;;;20.75;;
75758;SDS011;64371;47.566;19.086;2024-01-06T00:11:31;40.00;;;20.63;;
75758;SDS011;64371;47.566;19.086;2024-01-06T00:14:34;35.87;;;20.30;;
75758;SDS011;64371;47.566;19.086;2024-01-06T00:17:36;38.80;;;20.60;;
75758;SDS011;64371;47.566;19.086;2024-01-06T00:20:39;37.35;;;19.35;;
75758;SDS011;64371;47.566;19.086;2024-01-06T00:23:41;39.42;;;20.60;;
75758;SDS011;64371;47.566;19.086;2024-01-06T00:26:44;38.05;;;20.77;;
75758;SDS011;64371;47.566;19.086;2024-01-06T00:29:46;36.37;;;19.80;;
75758;SDS011;64371;47.566;19.086;2024-01-06T00:32:49;38.67;;;19.33;;
75758;SDS011;64371;47.566;19.086;2024-01-06T00:35:52;39.63;;;19.70;;
75758;SDS011;64371;47.566;19.086;2024-01-06T00:38:54;39.58;;;20.30;;
75758;SDS011;64371;47.566;19.086;2024-01-06T00:41:56;36.85;;;19.55;;
75758;SDS011;64371;47.566;19.086;2024-01-06T00:44:59;40.50;;;19.77;;
75758;SDS011;64371;47.566;19.086;2024-01-06T00:48:01;38.93;;;20.17;;
75758;SDS011;64371;47.566;19.086;2024-01-06T00:51:04;41.30;;;21.48;;
75758;SDS011;64371;47.566;19.086;2024-01-06T00:54:07;38.85;;;20.17;;
75758;SDS011;64371;47.566;19.086;2024-01-06T00:57:09;40.35;;;21.13;;
75758;SDS011;64371;47.566;19.086;2024-01-06T01:00:11;39.37;;;22.40;;
75758;SDS011;64371;47.566;19.086;2024-01-06T01:03:14;36.40;;;18.80;;
75758;SDS011;64371;47.566;19.086;2024-01-06T01:06:17;43.30;;;21.55;;
75758;SDS011;64371;47.566;19.086;2024-01-06T01:09:19;37.88;;;21.58;;
75758;SDS011;64371;47.566;19.086;2024-01-06T01:12:23;45.13;;;23.05;;
75758;SDS011;64371;47.566;19.086;2024-01-06T01:15:26;43.70;;;22.07;;
75758;SDS011;64371;47.566;19.086;2024-01-06T01:18:28;42.57;;;21.93;;
75758;SDS011;64371;47.566;19.086;2024-01-06T01:21:31;41.25;;;20.92;;
75758;SDS011;64371;47.566;19.086;2024-01-06T01:24:34;42.88;;;21.27;;
75758;SDS011;64371;47.566;19.086;2024-01-06T01:27:37;44.85;;;21.88;;
75758;SDS011;64371;47.566;19.086;2024-01-06T01:30:39;46.47;;;22.27;;
75758;SDS011;64371;47.566;19.086;2024-01-06T01:33:42;44.37;;;21.63;;
75758;SDS011;64371;47.566;19.086;2024-01-06T01:36:45;46.88;;;21.73;;
75758;SDS011;64371;47.566;19.086;2024-01-06T01:39:48;41.50;;;20.75;;
75758;SDS011;64371;47.566;19.086;2024-01-06T01:42:50;42.78;;;20.83;;
75758;SDS011;64371;47.566;19.086;2024-01-06T01:45:53;42.23;;;21.10;;
75758;SDS011;64371;47.566;19.086;2024-01-06T01:48:58;36.67;;;19.60;;
75758;SDS011;64371;47.566;19.086;2024-01-06T01:52:05;40.00;;;20.08;;
75758;SDS011;64371;47.566;19.086;2024-01-06T01:55:08;39.42;;;20.02;;
75758;SDS011;64371;47.566;19.086;2024-01-06T01:58:10;40.83;;;19.98;;
75758;SDS011;64371;47.566;19.086;2024-01-06T02:01:15;35.70;;;19.47;;
75758;SDS011;64371;47.566;19.086;2024-01-06T02:04:19;39.47;;;20.73;;
75758;SDS011;64371;47.566;19.086;2024-01-06T02:07:21;38.42;;;19.92;;
75758;SDS011;64371;47.566;19.086;2024-01-06T02:10:23;36.40;;;20.13;;
75758;SDS011;64371;47.566;19.086;2024-01-06T02:13:32;36.15;;;19.60;;
75758;SDS011;64371;47.566;19.086;2024-01-06T02:16:36;34.70;;;19.90;;
75758;SDS011;64371;47.566;19.086;2024-01-06T02:19:41;37.20;;;18.90;;
75758;SDS011;64371;47.566;19.086;2024-01-06T02:22:43;39.25;;;18.83;;
75758;SDS011;64371;47.566;19.086;2024-01-06T02:25:45;34.97;;;18.95;;
75758;SDS011;64371;47.566;19.086;2024-01-06T02:28:48;39.75;;;19.25;;
75758;SDS011;64371;47.566;19.086;2024-01-06T02:31:51;39.83;;;19.50;;
75758;SDS011;64371;47.566;19.086;2024-01-06T02:34:54;36.77;;;19.63;;
75758;SDS011;64371;47.566;19.086;2024-01-06T02:37:56;36.83;;;19.23;;
75758;SDS011;64371;47.566;19.086;2024-01-06T02:40:59;38.83;;;18.73;;
75758;SDS011;64371;47.566;19.086;2024-01-06T02:44:02;34.90;;;19.85;;
75758;SDS011;64371;47.566;19.086;2024-01-06T02:47:06;40.37;;;19.60;;
75758;SDS011;64371;47.566;19.086;2024-01-06T02:50:08;36.87;;;19.27;;
75758;SDS011;64371;47.566;19.086;2024-01-06T02:53:11;34.83;;;18.45;;
75758;SDS011;64371;47.566;19.086;2024-01-06T02:56:23;39.20;;;19.65;;
75758;SDS011;64371;47.566;19.086;2024-01-06T02:59:26;33.60;;;17.77;;
75758;SDS011;64371;47.566;19.086;2024-01-06T03:02:31;36.77;;;19.30;;
75758;SDS011;64371;47.566;19.086;2024-01-06T03:05:35;37.83;;;18.33;;
75758;SDS011;64371;47.566;19.086;2024-01-06T03:08:39;35.00;;;18.17;;
75758;SDS011;64371;47.566;19.086;2024-01-06T03:11:41;34.40;;;18.63;;
75758;SDS011;64371;47.566;19.086;2024-01-06T03:14:43;37.00;;;18.02;;
75758;SDS011;64371;47.566;19.086;2024-01-06T03:17:46;33.23;;;18.00;;
75758;SDS011;64371;47.566;19.086;2024-01-06T03:20:48;32.37;;;17.60;;
75758;SDS011;64371;47.566;19.086;2024-01-06T03:23:51;32.25;;;17.05;;
75758;SDS011;64371;47.566;19.086;2024-01-06T03:26:53;36.90;;;18.60;;
75758;SDS011;64371;47.566;19.086;2024-01-06T03:29:56;33.15;;;18.70;;
75758;SDS011;64371;47.566;19.086;2024-01-06T03:32:58;37.63;;;19.07;;
75758;SDS011;64371;47.566;19.086;2024-01-06T03:36:07;34.00;;;17.30;;
75758;SDS011;64371;47.566;19.086;2024-01-06T03:39:10;33.45;;;17.90;;
75758;SDS011;64371;47.566;19.086;2024-01-06T03:42:12;34.25;;;18.05;;
75758;SDS011;64371;47.566;19.086;2024-01-06T03:45:15;37.80;;;18.85;;
75758;SDS011;64371;47.566;19.086;2024-01-06T03:48:18;33.50;;;18.63;;
75758;SDS011;64371;47.566;19.086;2024-01-06T03:51:21;34.13;;;17.57;;
75758;SDS011;64371;47.566;19.086;2024-01-06T03:54:24;30.25;;;17.13;;
75758;SDS011;64371;47.566;19.086;2024-01-06T03:57:26;33.15;;;16.88;;
75758;SDS011;64371;47.566;19.086;2024-01-06T04:00:29;33.40;;;17.27;;
75758;SDS011;64371;47.566;19.086;2024-01-06T04:03:31;32.60;;;17.47;;
75758;SDS011;64371;47.566;19.086;2024-01-06T04:06:34;34.33;;;17.17;;
75758;SDS011;64371;47.566;19.086;2024-01-06T04:09:36;32.72;;;17.48;;
75758;SDS011;64371;47.566;19.086;2024-01-06T04:12:38;32.58;;;16.73;;
75758;SDS011;64371;47.566;19.086;2024-01-06T04:15:41;29.35;;;15.68;;
75758;SDS011;64371;47.566;19.086;2024-01-06T04:18:43;29.93;;;16.03;;
75758;SDS011;64371;47.566;19.086;2024-01-06T04:21:46;29.10;;;16.63;;
75758;SDS011;64371;47.566;19.086;2024-01-06T04:24:50;33.33;;;17.33;;
75758;SDS011;64371;47.566;19.086;2024-01-06T04:27:52;32.88;;;16.88;;
75758;SDS011;64371;47.566;19.086;2024-01-06T04:30:55;37.35;;;18.33;;
75758;SDS011;64371;47.566;19.086;2024-01-06T04:33:59;30.17;;;17.23;;
75758;SDS011;64371;47.566;19.086;2024-01-06T04:37:02;35.87;;;18.47;;
75758;SDS011;64371;47.566;19.086;2024-01-06T04:40:05;29.48;;;17.60;;
75758;SDS011;64371;47.566;19.086;2024-01-06T04:43:08;33.53;;;17.45;;
75758;SDS011;64371;47.566;19.086;2024-01-06T04:46:11;31.45;;;16.48;;
75758;SDS011;64371;47.566;19.086;2024-01-06T04:49:13;35.43;;;17.83;;
75758;SDS011;64371;47.566;19.086;2024-01-06T04:52:16;33.53;;;18.03;;
75758;SDS011;64371;47.566;19.086;2024-01-06T04:55:18;34.53;;;17.92;;
75758;SDS011;64371;47.566;19.086;2024-01-06T04:58:21;32.70;;;17.20;;
75758;SDS011;64371;47.566;19.086;2024-01-06T05:01:23;33.88;;;17.48;;
75758;SDS011;64371;47.566;19.086;2024-01-06T05:04:26;33.73;;;17.67;;
75758;SDS011;64371;47.566;19.086;2024-01-06T05:07:29;35.90;;;18.07;;
75758;SDS011;64371;47.566;19.086;2024-01-06T05:10:32;34.03;;;17.80;;
75758;SDS011;64371;47.566;19.086;2024-01-06T05:13:34;32.90;;;18.05;;
75758;SDS011;64371;47.566;19.086;2024-01-06T05:16:37;34.28;;;17.70;;
75758;SDS011;64371;47.566;19.086;2024-01-06T05:19:39;32.60;;;17.20;;
75758;SDS011;64371;47.566;19.086;2024-01-06T05:22:44;31.30;;;16.83;;
75758;SDS011;64371;47.566;19.086;2024-01-06T05:25:47;34.35;;;17.92;;
75758;SDS011;64371;47.566;19.086;2024-01-06T05:28:49;33.95;;;18.05;;
75758;SDS011;64371;47.566;19.086;2024-01-06T05:31:52;33.67;;;18.33;;
75758;SDS011;64371;47.566;19.086;2024-01-06T05:34:55;32.70;;;17.73;;
75758;SDS011;64371;47.566;19.086;2024-01-06T05:37:57;31.10;;;18.47;;
75758;SDS011;64371;47.566;19.086;2024-01-06T05:41:00;32.78;;;17.08;;
75758;SDS011;64371;47.566;19.086;2024-01-06T05:44:02;32.58;;;17.20;;
75758;SDS011;64371;47.566;19.086;2024-01-06T05:47:04;31.65;;;17.30;;
75758;SDS011;64371;47.566;19.086;2024-01-06T05:50:07;32.03;;;17.07;;
75758;SDS011;64371;47.566;19.086;2024-01-06T05:53:12;33.33;;;17.37;;
75758;SDS011;64371;47.566;19.086;2024-01-06T05:56:23;33.58;;;17.50;;
75758;SDS011;64371;47.566;19.086;2024-01-06T05:59:27;31.70;;;17.08;;
75758;SDS011;64371;47.566;19.086;2024-01-06T06:02:29;32.55;;;17.30;;
75758;SDS011;64371;47.566;19.086;2024-01-06T06:05:32;32.17;;;17.20;;
75758;SDS011;64371;47.566;19.086;2024-01-06T06:08:35;29.37;;;17.10;;
75758;SDS011;64371;47.566;19.086;2024-01-06T06:11:38;29.98;;;16.15;;
75758;SDS011;64371;47.566;19.086;2024-01-06T06:14:40;34.38;;;17.08;;
75758;SDS011;64371;47.566;19.086;2024-01-06T06:17:43;32.72;;;15.50;;
75758;SDS011;64371;47.566;19.086;2024-01-06T06:20:46;39.13;;;18.17;;
75758;SDS011;64371;47.566;19.086;2024-01-06T06:23:49;36.33;;;18.30;;
75758;SDS011;64371;47.566;19.086;2024-01-06T06:26:52;33.92;;;17.77;;
75758;SDS011;64371;47.566;19.086;2024-01-06T06:29:54;31.83;;;17.83;;
75758;SDS011;64371;47.566;19.086;2024-01-06T06:32:58;35.45;;;18.05;;
75758;SDS011;64371;47.566;19.086;2024-01-06T06:36:01;31.50;;;16.93;;
75758;SDS011;64371;47.566;19.086;2024-01-06T06:39:03;31.90;;;16.17;;
75758;SDS011;64371;47.566;19.086;2024-01-06T06:42:06;35.33;;;18.45;;
75758;SDS011;64371;47.566;19.086;2024-01-06T06:45:08;29.30;;;15.48;;
75758;SDS011;64371;47.566;19.086;2024-01-06T06:48:13;29.83;;;16.77;;
75758;SDS011;64371;47.566;19.086;2024-01-06T06:51:16;29.40;;;16.53;;
75758;SDS011;64371;47.566;19.086;2024-01-06T06:54:18;29.20;;;15.93;;
75758;SDS011;64371;47.566;19.086;2024-01-06T06:57:21;28.45;;;16.63;;
75758;SDS011;64371;47.566;19.086;2024-01-06T07:00:24;28.90;;;15.73;;
75758;SDS011;64371;47.566;19.086;2024-01-06T07:03:26;30.80;;;15.68;;
75758;SDS011;64371;47.566;19.086;2024-01-06T07:06:29;33.23;;;16.27;;
75758;SDS011;64371;47.566;19.086;2024-01-06T07:09:32;29.13;;;15.77;;
75758;SDS011;64371;47.566;19.086;2024-01-06T07:12:35;29.20;;;15.65;;
75758;SDS011;64371;47.566;19.086;2024-01-06T07:15:37;30.40;;;16.38;;
75758;SDS011;64371;47.566;19.086;2024-01-06T07:18:40;30.42;;;16.10;;
75758;SDS011;64371;47.566;19.086;2024-01-06T07:21:43;28.97;;;15.60;;
75758;SDS011;64371;47.566;19.086;2024-01-06T07:24:46;31.23;;;15.20;;
75758;SDS011;64371;47.566;19.086;2024-01-06T07:27:48;33.05;;;16.00;;
75758;SDS011;64371;47.566;19.086;2024-01-06T07:30:54;31.00;;;15.63;;
75758;SDS011;64371;47.566;19.086;2024-01-06T07:33:57;30.23;;;15.55;;
75758;SDS011;64371;47.566;19.086;2024-01-06T07:36:59;29.00;;;15.70;;
75758;SDS011;64371;47.566;19.086;2024-01-06T07:40:02;29.17;;;14.77;;
75758;SDS011;64371;47.566;19.086;2024-01-06T07:43:05;29.70;;;14.55;;
75758;SDS011;64371;47.566;19.086;2024-01-06T07:46:07;29.70;;;15.30;;
75758;SDS011;64371;47.566;19.086;2024-01-06T07:49:11;30.58;;;14.98;;
75758;SDS011;64371;47.566;19.086;2024-01-06T07:52:14;30.30;;;15.17;;
75758;SDS011;64371;47.566;19.086;2024-01-06T07:55:16;26.17;;;14.47;;
75758;SDS011;64371;47.566;19.086;2024-01-06T07:58:20;26.67;;;13.90;;
75758;SDS011;64371;47.566;19.086;2024-01-06T08:01:23;28.20;;;15.07;;
75758;SDS011;64371;47.566;19.086;2024-01-06T08:04:26;29.17;;;15.35;;
75758;SDS011;64371;47.566;19.086;2024-01-06T08:07:28;27.20;;;14.97;;
75758;SDS011;64371;47.566;19.086;2024-01-06T08:10:31;28.30;;;14.73;;
75758;SDS011;64371;47.566;19.086;2024-01-06T08:13:33;29.50;;;14.32;;
75758;SDS011;64371;47.566;19.086;2024-01-06T08:16:36;28.25;;;14.25;;
75758;SDS011;64371;47.566;19.086;2024-01-06T08:19:38;27.63;;;13.65;;
75758;SDS011;64371;47.566;19.086;2024-01-06T08:22:41;22.63;;;12.27;;
75758;SDS011;64371;47.566;19.086;2024-01-06T08:25:43;22.87;;;12.70;;
75758;SDS011;64371;47.566;19.086;2024-01-06T08:28:47;25.90;;;13.50;;
75758;SDS011;64371;47.566;19.086;2024-01-06T08:31:50;26.90;;;13.32;;
75758;SDS011;64371;47.566;19.086;2024-01-06T08:34:54;20.73;;;11.68;;
75758;SDS011;64371;47.566;19.086;2024-01-06T08:37:57;23.33;;;12.37;;
75758;SDS011;64371;47.566;19.086;2024-01-06T08:40:59;23.43;;;12.90;;
75758;SDS011;64371;47.566;19.086;2024-01-06T08:44:01;23.70;;;13.70;;
75758;SDS011;64371;47.566;19.086;2024-01-06T08:47:04;22.45;;;13.30;;
75758;SDS011;64371;47.566;19.086;2024-01-06T08:50:07;24.02;;;13.15;;
75758;SDS011;64371;47.566;19.086;2024-01-06T08:53:09;24.47;;;13.17;;
75758;SDS011;64371;47.566;19.086;2024-01-06T08:56:12;24.03;;;13.77;;
75758;SDS011;64371;47.566;19.086;2024-01-06T08:59:14;20.95;;;10.70;;
75758;SDS011;64371;47.566;19.086;2024-01-06T09:02:16;22.80;;;12.30;;
75758;SDS011;64371;47.566;19.086;2024-01-06T09:05:19;20.55;;;11.50;;
75758;SDS011;64371;47.566;19.086;2024-01-06T09:08:24;22.90;;;12.63;;
75758;SDS011;64371;47.566;19.086;2024-01-06T09:11:26;21.50;;;12.27;;
75758;SDS011;64371;47.566;19.086;2024-01-06T09:14:29;23.65;;;13.18;;
75758;SDS011;64371;47.566;19.086;2024-01-06T09:17:32;22.42;;;12.00;;
75758;SDS011;64371;47.566;19.086;2024-01-06T09:20:36;24.35;;;12.15;;
75758;SDS011;64371;47.566;19.086;2024-01-06T09:23:38;25.87;;;14.07;;
75758;SDS011;64371;47.566;19.086;2024-01-06T09:26:41;28.47;;;13.90;;
75758;SDS011;64371;47.566;19.086;2024-01-06T09:29:47;23.58;;;12.63;;
75758;SDS011;64371;47.566;19.086;2024-01-06T09:32:52;20.52;;;12.98;;
75758;SDS011;64371;47.566;19.086;2024-01-06T09:35:54;23.10;;;12.57;;
75758;SDS011;64371;47.566;19.086;2024-01-06T09:38:57;24.23;;;11.77;;
75758;SDS011;64371;47.566;19.086;2024-01-06T09:42:00;20.47;;;11.43;;
75758;SDS011;64371;47.566;19.086;2024-01-06T09:45:03;24.50;;;13.32;;
75758;SDS011;64371;47.566;19.086;2024-01-06T09:48:13;24.10;;;12.85;;
75758;SDS011;64371;47.566;19.086;2024-01-06T09:51:16;23.67;;;12.68;;
75758;SDS011;64371;47.566;19.086;2024-01-06T09:54:22;24.33;;;13.00;;
75758;SDS011;64371;47.566;19.086;2024-01-06T09:57:28;24.80;;;12.10;;
75758;SDS011;64371;47.566;19.086;2024-01-06T10:00:31;24.58;;;12.95;;
75758;SDS011;64371;47.566;19.086;2024-01-06T10:03:35;23.33;;;12.80;;
75758;SDS011;64371;47.566;19.086;2024-01-06T10:06:38;23.85;;;13.15;;
75758;SDS011;64371;47.566;19.086;2024-01-06T10:09:41;23.17;;;12.10;;
75758;SDS011;64371;47.566;19.086;2024-01-06T10:12:44;22.37;;;12.57;;
75758;SDS011;64371;47.566;19.086;2024-01-06T10:15:50;22.67;;;12.15;;
75758;SDS011;64371;47.566;19.086;2024-01-06T10:18:52;22.30;;;11.27;;
75758;SDS011;64371;47.566;19.086;2024-01-06T10:21:55;20.58;;;11.93;;
75758;SDS011;64371;47.566;19.086;2024-01-06T10:25:05;22.40;;;12.80;;
75758;SDS011;64371;47.566;19.086;2024-01-06T10:28:12;26.83;;;14.37;;
75758;SDS011;64371;47.566;19.086;2024-01-06T10:31:17;25.95;;;14.73;;
75758;SDS011;64371;47.566;19.086;2024-01-06T10:34:20;27.50;;;14.77;;
75758;SDS011;64371;47.566;19.086;2024-01-06T10:37:24;22.40;;;11.98;;
75758;SDS011;64371;47.566;19.086;2024-01-06T10:40:29;24.60;;;13.87;;
75758;SDS011;64371;47.566;19.086;2024-01-06T10:43:31;23.80;;;12.93;;
75758;SDS011;64371;47.566;19.086;2024-01-06T10:46:38;26.58;;;13.98;;
75758;SDS011;64371;47.566;19.086;2024-01-06T10:49:41;24.00;;;13.00;;
75758;SDS011;64371;47.566;19.086;2024-01-06T10:52:45;24.13;;;13.10;;
75758;SDS011;64371;47.566;19.086;2024-01-06T10:55:49;26.53;;;13.20;;
75758;SDS011;64371;47.566;19.086;2024-01-06T10:58:57;21.47;;;12.07;;
75758;SDS011;64371;47.566;19.086;2024-01-06T11:02:00;23.00;;;12.18;;
75758;SDS011;64371;47.566;19.086;2024-01-06T11:05:04;22.02;;;12.38;;
75758;SDS011;64371;47.566;19.086;2024-01-06T11:08:10;23.73;;;12.70;;
75758;SDS011;64371;47.566;19.086;2024-01-06T11:11:13;24.20;;;13.07;;
75758;SDS011;64371;47.566;19.086;2024-01-06T11:21:26;26.85;;;13.73;;
75758;SDS011;64371;47.566;19.086;2024-01-06T11:24:25;27.25;;;13.18;;
75758;SDS011;64371;47.566;19.086;2024-01-06T11:27:38;28.27;;;14.47;;
75758;SDS011;64371;47.566;19.086;2024-01-06T11:30:42;30.83;;;15.77;;
75758;SDS011;64371;47.566;19.086;2024-01-06T11:33:45;24.27;;;14.20;;
75758;SDS011;64371;47.566;19.086;2024-01-06T11:36:54;26.05;;;13.00;;
75758;SDS011;64371;47.566;19.086;2024-01-06T11:39:57;30.02;;;13.55;;
75758;SDS011;64371;47.566;19.086;2024-01-06T11:43:11;26.10;;;13.47;;
75758;SDS011;64371;47.566;19.086;2024-01-06T11:46:14;27.27;;;13.53;;
75758;SDS011;64371;47.566;19.086;2024-01-06T11:49:20;24.02;;;13.65;;
75758;SDS011;64371;47.566;19.086;2024-01-06T11:52:23;24.02;;;12.93;;
75758;SDS011;64371;47.566;19.086;2024-01-06T11:55:27;27.40;;;14.52;;
75758;SDS011;64371;47.566;19.086;2024-01-06T11:58:30;26.07;;;14.83;;
75758;SDS011;64371;47.566;19.086;2024-01-06T12:01:39;26.50;;;14.60;;
75758;SDS011;64371;47.566;19.086;2024-01-06T12:04:41;25.55;;;14.20;;
75758;SDS011;64371;47.566;19.086;2024-01-06T12:07:54;25.83;;;14.50;;
75758;SDS011;64371;47.566;19.086;2024-01-06T12:11:03;25.58;;;14.15;;
75758;SDS011;64371;47.566;19.086;2024-01-06T12:14:07;26.57;;;14.47;;
75758;SDS011;64371;47.566;19.086;2024-01-06T12:17:09;29.80;;;15.63;;
75758;SDS011;64371;47.566;19.086;2024-01-06T12:20:12;30.40;;;15.13;;
75758;SDS011;64371;47.566;19.086;2024-01-06T12:23:25;26.50;;;14.63;;
75758;SDS011;64371;47.566;19.086;2024-01-06T12:26:30;26.27;;;15.80;;
75758;SDS011;64371;47.566;19.086;2024-01-06T12:29:32;29.10;;;15.75;;
75758;SDS011;64371;47.566;19.086;2024-01-06T12:32:34;27.73;;;15.87;;
75758;SDS011;64371;47.566;19.086;2024-01-06T12:35:37;32.90;;;16.77;;
75758;SDS011;64371;47.566;19.086;2024-01-06T12:38:41;30.60;;;16.70;;
75758;SDS011;64371;47.566;19.086;2024-01-06T12:41:44;35.72;;;18.00;;
75758;SDS011;64371;47.566;19.086;2024-01-06T12:44:47;29.80;;;16.27;;
75758;SDS011;64371;47.566;19.086;2024-01-06T12:47:49;31.17;;;17.03;;
75758;SDS011;64371;47.566;19.086;2024-01-06T12:50:51;34.85;;;17.30;;
75758;SDS011;64371;47.566;19.086;2024-01-06T12:53:54;32.80;;;17.30;;
75758;SDS011;64371;47.566;19.086;2024-01-06T12:56:56;32.35;;;16.90;;
75758;SDS011;64371;47.566;19.086;2024-01-06T12:59:59;35.03;;;18.50;;
75758;SDS011;64371;47.566;19.086;2024-01-06T13:03:01;31.23;;;16.73;;
75758;SDS011;64371;47.566;19.086;2024-01-06T13:06:04;31.40;;;17.10;;
75758;SDS011;64371;47.566;19.086;2024-01-06T13:09:09;33.88;;;17.80;;
75758;SDS011;64371;47.566;19.086;2024-01-06T13:12:14;31.27;;;17.55;;
75758;SDS011;64371;47.566;19.086;2024-01-06T13:15:17;32.53;;;18.03;;
75758;SDS011;64371;47.566;19.086;2024-01-06T13:18:19;35.40;;;18.27;;
75758;SDS011;64371;47.566;19.086;2024-01-06T13:21:22;31.75;;;17.73;;
75758;SDS011;64371;47.566;19.086;2024-01-06T13:24:30;32.50;;;17.13;;
75758;SDS011;64371;47.566;19.086;2024-01-06T13:27:33;32.63;;;17.70;;
75758;SDS011;64371;47.566;19.086;2024-01-06T13:30:35;31.37;;;17.57;;
75758;SDS011;64371;47.566;19.086;2024-01-06T13:33:38;34.60;;;17.80;;
75758;SDS011;64371;47.566;19.086;2024-01-06T13:36:41;34.05;;;17.23;;
75758;SDS011;64371;47.566;19.086;2024-01-06T13:39:44;34.33;;;17.83;;
75758;SDS011;64371;47.566;19.086;2024-01-06T13:42:46;32.97;;;17.63;;
75758;SDS011;64371;47.566;19.086;2024-01-06T13:45:49;31.33;;;17.17;;
75758;SDS011;64371;47.566;19.086;2024-01-06T13:48:55;33.83;;;18.07;;
75758;SDS011;64371;47.566;19.086;2024-01-06T13:51:57;31.33;;;17.45;;
75758;SDS011;64371;47.566;19.086;2024-01-06T13:55:00;35.25;;;18.00;;
75758;SDS011;64371;47.566;19.086;2024-01-06T13:58:02;35.90;;;18.33;;
75758;SDS011;64371;47.566;19.086;2024-01-06T14:01:06;33.93;;;17.83;;
75758;SDS011;64371;47.566;19.086;2024-01-06T14:04:12;36.73;;;18.30;;
75758;SDS011;64371;47.566;19.086;2024-01-06T14:07:15;38.35;;;18.98;;
75758;SDS011;64371;47.566;19.086;2024-01-06T14:10:21;36.05;;;18.70;;
75758;SDS011;64371;47.566;19.086;2024-01-06T14:13:27;41.13;;;20.67;;
75758;SDS011;64371;47.566;19.086;2024-01-06T14:16:33;43.53;;;22.07;;
75758;SDS011;64371;47.566;19.086;2024-01-06T14:19:37;40.70;;;22.13;;
75758;SDS011;64371;47.566;19.086;2024-01-06T14:22:39;42.25;;;22.08;;
75758;SDS011;64371;47.566;19.086;2024-01-06T14:25:42;38.70;;;20.30;;
75758;SDS011;64371;47.566;19.086;2024-01-06T14:28:44;36.95;;;19.35;;
75758;SDS011;64371;47.566;19.086;2024-01-06T14:31:47;37.77;;;19.43;;
75758;SDS011;64371;47.566;19.086;2024-01-06T14:34:50;39.37;;;21.13;;
75758;SDS011;64371;47.566;19.086;2024-01-06T14:37:53;34.88;;;18.48;;
75758;SDS011;64371;47.566;19.086;2024-01-06T14:40:56;36.78;;;18.38;;
75758;SDS011;64371;47.566;19.086;2024-01-06T14:43:58;30.52;;;16.90;;
75758;SDS011;64371;47.566;19.086;2024-01-06T14:47:01;31.58;;;17.30;;
75758;SDS011;64371;47.566;19.086;2024-01-06T14:50:03;31.03;;;17.23;;
75758;SDS011;64371;47.566;19.086;2024-01-06T14:53:09;31.27;;;16.52;;
75758;SDS011;64371;47.566;19.086;2024-01-06T14:56:12;35.95;;;18.63;;
75758;SDS011;64371;47.566;19.086;2024-01-06T14:59:15;39.30;;;19.40;;
75758;SDS011;64371;47.566;19.086;2024-01-06T15:02:21;36.57;;;17.80;;
75758;SDS011;64371;47.566;19.086;2024-01-06T15:05:23;30.73;;;17.40;;
75758;SDS011;64371;47.566;19.086;2024-01-06T15:08:30;37.42;;;19.40;;
75758;SDS011;64371;47.566;19.086;2024-01-06T15:11:32;37.40;;;19.58;;
75758;SDS011;64371;47.566;19.086;2024-01-06T15:14:35;37.60;;;18.23;;
75758;SDS011;64371;47.566;19.086;2024-01-06T15:17:37;36.37;;;20.00;;
75758;SDS011;64371;47.566;19.086;2024-01-06T15:20:40;39.33;;;19.67;;
75758;SDS011;64371;47.566;19.086;2024-01-06T15:23:43;40.15;;;20.38;;
75758;SDS011;64371;47.566;19.086;2024-01-06T15:26:45;36.42;;;18.92;;
75758;SDS011;64371;47.566;19.086;2024-01-06T15:29:47;39.00;;;19.48;;
75758;SDS011;64371;47.566;19.086;2024-01-06T15:32:50;35.13;;;18.73;;
75758;SDS011;64371;47.566;19.086;2024-01-06T15:35:52;37.23;;;18.77;;
75758;SDS011;64371;47.566;19.086;2024-01-06T15:38:55;37.95;;;20.45;;
75758;SDS011;64371;47.566;19.086;2024-01-06T15:41:57;37.45;;;20.27;;
75758;SDS011;64371;47.566;19.086;2024-01-06T15:45:00;37.13;;;19.85;;
75758;SDS011;64371;47.566;19.086;2024-01-06T15:48:02;37.53;;;20.50;;
75758;SDS011;64371;47.566;19.086;2024-01-06T15:51:05;40.53;;;20.57;;
75758;SDS011;64371;47.566;19.086;2024-01-06T15:54:07;43.28;;;21.80;;
75758;SDS011;64371;47.566;19.086;2024-01-06T15:57:10;42.17;;;21.67;;
75758;SDS011;64371;47.566;19.086;2024-01-06T16:00:12;39.08;;;21.75;;
75758;SDS011;64371;47.566;19.086;2024-01-06T16:03:15;57.47;;;29.17;;
75758;SDS011;64371;47.566;19.086;2024-01-06T16:06:18;52.40;;;26.63;;
75758;SDS011;64371;47.566;19.086;2024-01-06T16:09:21;53.92;;;27.52;;
75758;SDS011;64371;47.566;19.086;2024-01-06T16:12:27;51.97;;;25.95;;
75758;SDS011;64371;47.566;19.086;2024-01-06T16:15:33;50.75;;;25.50;;
75758;SDS011;64371;47.566;19.086;2024-01-06T16:18:35;50.40;;;26.47;;
75758;SDS011;64371;47.566;19.086;2024-01-06T16:21:40;47.30;;;24.90;;
75758;SDS011;64371;47.566;19.086;2024-01-06T16:24:43;59.67;;;29.42;;
75758;SDS011;64371;47.566;19.086;2024-01-06T16:27:45;52.75;;;25.80;;
75758;SDS011;64371;47.566;19.086;2024-01-06T16:30:48;48.60;;;24.58;;
75758;SDS011;64371;47.566;19.086;2024-01-06T16:33:50;40.60;;;23.08;;
75758;SDS011;64371;47.566;19.086;2024-01-06T16:36:53;46.00;;;22.23;;
75758;SDS011;64371;47.566;19.086;2024-01-06T16:39:56;44.70;;;23.25;;
75758;SDS011;64371;47.566;19.086;2024-01-06T16:42:58;43.03;;;21.50;;
75758;SDS011;64371;47.566;19.086;2024-01-06T16:46:01;42.38;;;21.70;;
75758;SDS011;64371;47.566;19.086;2024-01-06T16:49:03;41.27;;;21.43;;
75758;SDS011;64371;47.566;19.086;2024-01-06T16:52:06;38.13;;;20.80;;
75758;SDS011;64371;47.566;19.086;2024-01-06T16:55:08;37.10;;;20.75;;
75758;SDS011;64371;47.566;19.086;2024-01-06T16:58:11;44.50;;;22.33;;
75758;SDS011;64371;47.566;19.086;2024-01-06T17:01:13;46.67;;;22.33;;
75758;SDS011;64371;47.566;19.086;2024-01-06T17:04:16;42.90;;;21.80;;
75758;SDS011;64371;47.566;19.086;2024-01-06T17:07:19;44.80;;;22.67;;
75758;SDS011;64371;47.566;19.086;2024-01-06T17:10:22;43.83;;;21.85;;
75758;SDS011;64371;47.566;19.086;2024-01-06T17:13:24;46.40;;;22.48;;
75758;SDS011;64371;47.566;19.086;2024-01-06T17:16:26;43.00;;;22.42;;
75758;SDS011;64371;47.566;19.086;2024-01-06T17:19:29;39.93;;;22.13;;
75758;SDS011;64371;47.566;19.086;2024-01-06T17:22:31;42.17;;;21.10;;
75758;SDS011;64371;47.566;19.086;2024-01-06T17:25:37;35.55;;;20.40;;
75758;SDS011;64371;47.566;19.086;2024-01-06T17:28:40;44.33;;;22.02;;
75758;SDS011;64371;47.566;19.086;2024-01-06T17:31:42;40.50;;;19.90;;
75758;SDS011;64371;47.566;19.086;2024-01-06T17:34:45;39.03;;;20.47;;
75758;SDS011;64371;47.566;19.086;2024-01-06T17:37:48;44.77;;;21.77;;
75758;SDS011;64371;47.566;19.086;2024-01-06T17:40:50;47.55;;;22.42;;
75758;SDS011;64371;47.566;19.086;2024-01-06T17:43:52;46.55;;;21.77;;